< Typhoon 201417 2014 Season Typhoon 201419 >
Typhoon 201418 (PHANFONE)
General InformationTrack Information on Google MapsDetailed Wind InformationForecast History on Google MapsAccess Analytics MapList of All Images || NewsDisaster Info.WeblogTrackbackTyphoon FrontTwiphoonTyphoon Now!Typhoon ImaginationDisaster Info. XMLResourceGoogle EarthGE AnimationAtom FeedGeoJSON
Detalied Best Track (Time Zone = UTC)
Year Month Day Hour Lat. Long. Pressure (hPa) Wind (kt) Class Image Chart
2014 9 28 06 11.0 157.1 1004 0 2 Image Chart
2014 9 28 12 11.6 155.1 1004 0 2 Image Chart
2014 9 28 18 12.2 153.8 1002 0 2 Image Chart
2014 9 29 00 12.7 152.2 1000 0 2 Image Chart
2014 9 29 06 13.0 151.0 998 35 3 Image Chart
2014 9 29 12 13.4 150.3 994 40 3 Image Chart
2014 9 29 18 13.9 149.5 990 45 3 Image Chart
2014 9 30 00 15.2 148.1 990 45 3 Image Chart
2014 9 30 06 16.4 146.9 990 45 3 Image Chart
2014 9 30 12 16.4 145.8 985 50 4 Image Chart
2014 9 30 18 16.6 144.7 980 55 4 Image Chart
2014 10 1 00 16.9 143.8 970 60 4 Image Chart
2014 10 1 06 18.1 142.6 965 65 5 Image Chart
2014 10 1 12 18.4 141.2 955 75 5 Image Chart
2014 10 1 18 18.9 140.2 950 80 5 Image Chart
2014 10 2 00 19.5 139.0 940 90 5 Image Chart
2014 10 2 06 19.7 138.2 935 95 5 Image Chart
2014 10 2 12 20.6 137.5 935 95 5 Image Chart
2014 10 2 18 21.5 136.5 935 95 5 Image Chart
2014 10 3 00 22.3 135.5 935 95 5 Image Chart
2014 10 3 06 23.2 134.6 935 95 5 Image Chart
2014 10 3 12 24.0 134.0 935 95 5 Image Chart
2014 10 3 18 24.7 133.4 935 95 5 Image Chart
2014 10 3 21 25.1 133.1 935 95 5 Image Chart
2014 10 4 00 25.4 132.9 935 95 5 Image Chart
2014 10 4 03 25.9 132.5 935 95 5 Image Chart
2014 10 4 06 26.3 132.3 935 95 5 Image Chart
2014 10 4 09 26.7 132.1 935 95 5 Image Chart
2014 10 4 12 27.1 131.8 935 95 5 Image Chart
2014 10 4 15 27.5 131.5 935 95 5 Image Chart
2014 10 4 18 27.9 131.3 940 90 5 Image Chart
2014 10 4 21 28.4 131.2 940 90 5 Image Chart
2014 10 5 00 28.9 131.3 945 85 5 Image Chart
2014 10 5 03 29.5 131.4 945 85 5 Image Chart
2014 10 5 06 30.1 131.9 945 85 5 Image Chart
2014 10 5 09 30.7 132.5 945 85 5 Image Chart
2014 10 5 12 31.4 133.2 950 80 5 Image Chart
2014 10 5 15 32.2 134.3 950 80 5 Image Chart
2014 10 5 18 33.0 135.4 955 75 5 Image Chart
2014 10 5 21 34.0 136.9 960 70 5 Image Chart
2014 10 5 23 34.7 137.7 965 65 5 Image Chart
2014 10 6 00 34.9 138.5 965 65 5 Image Chart
2014 10 6 03 36.1 140.7 970 65 5 Image Chart
2014 10 6 06 37.7 143.5 975 60 4 Image Chart
2014 10 6 12 39.0 147.0 982 0 6 Image Chart
2014 10 6 18 39.7 153.7 984 0 6 Image Chart
2014 10 7 00 39.8 159.4 984 0 6 Image Chart
2014 10 7 06 40.3 164.7 978 0 6 Image Chart
2014 10 7 12 41.0 170.7 972 0 6 Image Chart
2014 10 7 18 42.0 176.5 964 0 6 Image Chart
2014 10 8 00 43.2 181.3 960 0 6 Image Chart
Japan Meteorological Agency Best Track Data | Correction Date : 2014-11-13
< Typhoon 201417 2014 Season Typhoon 201419 >

Help